Time;durP1;ratioP1;P1;durP2;ratioP2;P2;SDS_P1;SDS_P2;PMS_P1;PMS_P2;Temp;Humidity;BMP_temperature;BMP_pressure;BME280_temperature;BME280_humidity;BME280_pressure;Samples;Min_cycle;Max_cycle;Signal;HPM_P1;HPM_P2
2023/04/21 00:02:04;;;;;;;9.25;6.07;;;22.50;47.10;;;;;;5040065;28;20036;-66
2023/04/21 00:04:31;;;;;;;7.68;5.57;;;22.50;47.10;;;;;;5041023;28;20100;-66
2023/04/21 00:07:00;;;;;;;8.63;5.90;;;22.50;47.10;;;;;;5040305;28;20033;-67
2023/04/21 00:09:26;;;;;;;8.32;5.60;;;22.50;47.10;;;;;;5041232;28;20554;-67
2023/04/21 00:11:52;;;;;;;8.88;6.05;;;22.50;47.20;;;;;;5039821;28;20037;-67
2023/04/21 00:14:17;;;;;;;9.30;5.90;;;22.50;47.20;;;;;;5041479;28;20076;-66
2023/04/21 00:16:43;;;;;;;8.10;5.60;;;22.50;47.20;;;;;;5040983;28;20104;-66
2023/04/21 00:19:09;;;;;;;9.20;5.40;;;22.40;47.20;;;;;;5037153;28;20097;-67
2023/04/21 00:21:35;;;;;;;8.30;5.70;;;22.40;47.20;;;;;;5037104;28;20021;-66
2023/04/21 00:24:00;;;;;;;8.77;6.10;;;22.40;47.20;;;;;;5036237;28;20013;-66
2023/04/21 00:26:26;;;;;;;7.97;5.88;;;22.40;47.20;;;;;;5041071;28;20078;-66
2023/04/21 00:28:51;;;;;;;8.25;5.78;;;22.40;47.30;;;;;;5039018;28;20477;-65
2023/04/21 00:31:17;;;;;;;7.95;6.05;;;22.40;47.30;;;;;;5041462;28;20032;-66
2023/04/21 00:33:43;;;;;;;9.50;6.03;;;22.40;47.30;;;;;;5040704;28;20521;-66
2023/04/21 00:36:08;;;;;;;8.02;5.63;;;22.30;47.20;;;;;;5040440;28;20163;-66
2023/04/21 00:38:34;;;;;;;7.07;5.00;;;22.40;47.30;;;;;;5038560;28;20107;-66
2023/04/21 00:41:00;;;;;;;7.93;5.40;;;22.30;47.20;;;;;;5037605;28;20044;-65
2023/04/21 00:43:25;;;;;;;8.23;5.50;;;22.30;47.20;;;;;;5039669;28;20035;-65
2023/04/21 00:45:51;;;;;;;7.78;5.15;;;22.40;47.30;;;;;;5039706;28;20029;-66
2023/04/21 00:48:16;;;;;;;7.93;5.35;;;22.30;47.30;;;;;;5038470;28;20111;-66
2023/04/21 00:50:43;;;;;;;8.48;5.70;;;22.30;47.30;;;;;;5037378;28;20757;-65
2023/04/21 00:53:11;;;;;;;8.00;5.43;;;22.30;47.30;;;;;;5038796;28;20036;-67
2023/04/21 00:55:37;;;;;;;7.05;5.10;;;22.30;47.30;;;;;;5039724;28;20114;-66
2023/04/21 00:58:03;;;;;;;7.55;5.43;;;22.20;47.30;;;;;;5040280;28;20483;-66
2023/04/21 01:00:29;;;;;;;7.20;5.10;;;22.20;47.30;;;;;;5038481;28;20035;-67
2023/04/21 01:02:55;;;;;;;7.70;4.95;;;22.20;47.30;;;;;;5037887;28;20057;-66
2023/04/21 01:05:21;;;;;;;7.72;5.03;;;22.20;47.40;;;;;;5039564;28;20029;-66
2023/04/21 01:07:47;;;;;;;8.75;5.47;;;22.20;47.40;;;;;;5036747;28;20032;-66
2023/04/21 01:10:13;;;;;;;7.65;4.90;;;22.20;47.40;;;;;;5039319;28;20033;-66
2023/04/21 01:12:46;;;;;;;7.15;4.97;;;22.20;47.40;;;;;;5035737;28;20037;-66
2023/04/21 01:15:14;;;;;;;7.10;4.63;;;22.20;47.50;;;;;;5038886;28;20029;-66
2023/04/21 01:17:40;;;;;;;7.63;4.65;;;22.20;47.40;;;;;;5041361;28;20057;-66
2023/04/21 01:20:12;;;;;;;7.32;4.78;;;22.20;47.40;;;;;;5034982;28;20587;-66
2023/04/21 01:22:44;;;;;;;6.68;4.57;;;22.20;47.40;;;;;;5038964;28;20124;-66
2023/04/21 01:25:09;;;;;;;7.88;5.22;;;22.10;47.90;;;;;;5040221;28;20034;-65
2023/04/21 01:27:35;;;;;;;7.43;5.15;;;22.20;47.40;;;;;;5034222;28;20401;-66
2023/04/21 01:30:01;;;;;;;6.78;4.90;;;22.20;47.40;;;;;;5037743;28;20374;-65
2023/04/21 01:32:29;;;;;;;6.82;4.65;;;22.20;47.50;;;;;;5038541;28;20057;-66
2023/04/21 01:34:56;;;;;;;6.18;4.35;;;22.10;47.40;;;;;;5037805;28;20060;-66
2023/04/21 01:37:26;;;;;;;8.02;5.13;;;22.10;47.40;;;;;;5039556;28;20389;-66
2023/04/21 01:39:54;;;;;;;6.78;4.65;;;22.10;47.40;;;;;;5035986;28;20100;-66
2023/04/21 01:42:21;;;;;;;6.07;4.30;;;22.10;47.40;;;;;;5038263;28;20060;-66
2023/04/21 01:44:48;;;;;;;6.65;4.55;;;22.10;47.40;;;;;;5038902;28;20488;-66
2023/04/21 01:47:14;;;;;;;6.90;4.65;;;22.10;47.50;;;;;;5038124;28;20029;-66
2023/04/21 01:49:40;;;;;;;6.80;4.32;;;22.10;47.50;;;;;;5037449;28;20392;-67
2023/04/21 01:52:06;;;;;;;6.93;4.50;;;22.10;47.50;;;;;;5039892;28;20029;-66
2023/04/21 01:54:32;;;;;;;6.20;4.43;;;22.00;47.40;;;;;;5037349;28;20048;-67
2023/04/21 01:56:57;;;;;;;6.45;4.57;;;22.00;47.40;;;;;;5040853;28;20021;-66
2023/04/21 01:59:23;;;;;;;6.40;4.40;;;22.00;47.50;;;;;;5040210;28;20393;-66
2023/04/21 02:01:48;;;;;;;6.55;4.20;;;22.00;47.50;;;;;;5037676;28;20033;-67
2023/04/21 02:04:14;;;;;;;5.70;4.13;;;22.00;47.50;;;;;;5042502;28;20048;-66
2023/04/21 02:06:40;;;;;;;6.60;4.57;;;22.00;48.00;;;;;;5043484;28;20024;-66
2023/04/21 02:09:06;;;;;;;6.20;4.38;;;22.00;47.50;;;;;;5040798;28;20037;-66
2023/04/21 02:11:31;;;;;;;6.22;4.18;;;22.00;47.50;;;;;;5044125;28;20037;-67
2023/04/21 02:13:57;;;;;;;5.90;4.20;;;22.00;47.50;;;;;;5040902;28;20029;-66
2023/04/21 02:16:25;;;;;;;5.95;4.35;;;22.00;47.50;;;;;;5041620;28;20047;-66
2023/04/21 02:19:02;;;;;;;6.17;4.33;;;22.00;47.50;;;;;;5042636;28;20485;-66
2023/04/21 02:21:27;;;;;;;5.82;4.03;;;22.00;47.50;;;;;;5042720;28;20246;-66
2023/04/21 02:23:53;;;;;;;5.90;3.85;;;21.90;47.50;;;;;;5038676;28;20029;-66
2023/04/21 02:26:19;;;;;;;6.18;4.32;;;22.00;47.60;;;;;;5041569;28;20063;-66
2023/04/21 02:28:46;;;;;;;5.70;3.88;;;21.90;47.50;;;;;;5043106;28;20025;-65
2023/04/21 02:31:11;;;;;;;5.80;4.18;;;21.90;47.50;;;;;;5039276;28;20021;-66
2023/04/21 02:33:37;;;;;;;5.68;3.75;;;21.90;47.50;;;;;;5041455;28;20385;-66
2023/04/21 02:36:03;;;;;;;6.28;3.85;;;21.90;47.50;;;;;;5039648;28;20071;-66
2023/04/21 02:38:29;;;;;;;5.45;3.88;;;21.90;47.50;;;;;;5039348;28;20017;-66
2023/04/21 02:40:56;;;;;;;6.68;4.22;;;21.90;47.60;;;;;;5041834;28;20025;-65
2023/04/21 02:43:21;;;;;;;5.35;3.70;;;21.90;47.60;;;;;;5039532;28;20109;-66
2023/04/21 02:45:47;;;;;;;5.97;3.83;;;21.90;47.60;;;;;;5042229;28;20477;-67
2023/04/21 02:48:12;;;;;;;6.25;3.90;;;21.90;47.60;;;;;;5039948;28;20419;-66
2023/04/21 02:50:39;;;;;;;4.72;3.45;;;21.90;47.60;;;;;;5040788;28;20025;-66
2023/04/21 02:53:04;;;;;;;5.57;4.03;;;21.90;47.60;;;;;;5040287;28;20101;-66
2023/04/21 02:55:30;;;;;;;4.68;3.47;;;21.90;47.60;;;;;;5041320;28;20403;-66
2023/04/21 02:57:56;;;;;;;6.28;3.97;;;21.90;47.60;;;;;;5040333;28;20035;-67
2023/04/21 03:00:21;;;;;;;5.25;3.65;;;21.80;47.60;;;;;;5040099;28;20112;-66
2023/04/21 03:02:47;;;;;;;6.10;4.50;;;21.80;47.60;;;;;;5038350;28;20033;-66
2023/04/21 03:05:13;;;;;;;6.40;3.65;;;21.80;48.20;;;;;;5039265;28;20030;-66
2023/04/21 03:07:39;;;;;;;5.18;3.40;;;21.80;47.60;;;;;;5040894;28;20396;-66
2023/04/21 03:10:05;;;;;;;5.50;3.67;;;21.80;47.60;;;;;;5040278;28;20064;-66
2023/04/21 03:12:31;;;;;;;5.47;3.50;;;21.80;47.60;;;;;;5041830;28;20390;-67
2023/04/21 03:14:57;;;;;;;5.45;3.55;;;21.80;47.70;;;;;;5041568;28;20063;-66
2023/04/21 03:17:23;;;;;;;4.18;3.08;;;21.80;47.70;;;;;;5042470;28;20440;-66
2023/04/21 03:19:49;;;;;;;5.10;3.58;;;21.80;47.70;;;;;;5042996;28;20091;-66
2023/04/21 03:22:14;;;;;;;4.95;3.30;;;21.80;47.70;;;;;;5036525;28;20033;-66
2023/04/21 03:24:40;;;;;;;4.80;3.35;;;21.70;47.60;;;;;;5038380;28;20053;-66
2023/04/21 03:27:06;;;;;;;5.07;3.50;;;21.70;47.70;;;;;;5041869;28;20041;-67
2023/04/21 03:29:31;;;;;;;5.35;3.10;;;21.70;47.70;;;;;;5041340;28;20405;-67
2023/04/21 03:31:57;;;;;;;5.07;3.22;;;21.70;47.70;;;;;;5041104;28;20037;-66
2023/04/21 03:34:23;;;;;;;5.40;3.70;;;21.70;47.70;;;;;;5039678;28;20144;-67
2023/04/21 03:36:48;;;;;;;4.68;3.13;;;21.70;47.70;;;;;;5040242;28;20021;-66
2023/04/21 03:39:14;;;;;;;4.80;3.20;;;21.70;47.70;;;;;;5039913;28;20453;-66
2023/04/21 03:41:40;;;;;;;4.50;3.22;;;21.70;48.20;;;;;;5038843;28;20044;-66
2023/04/21 03:44:05;;;;;;;4.80;3.25;;;21.70;47.80;;;;;;5039806;28;20026;-63
2023/04/21 03:46:31;;;;;;;5.90;3.70;;;21.70;47.80;;;;;;5040896;28;20041;-66
2023/04/21 03:48:56;;;;;;;4.45;3.00;;;21.70;47.80;;;;;;5041540;28;20190;-66
2023/04/21 03:51:22;;;;;;;4.68;3.00;;;21.70;47.80;;;;;;5040716;28;20034;-67
2023/04/21 03:53:48;;;;;;;4.88;3.28;;;21.60;47.80;;;;;;5036074;28;20025;-66
2023/04/21 03:56:13;;;;;;;4.50;2.80;;;21.60;47.80;;;;;;5038570;28;20087;-66
2023/04/21 03:58:39;;;;;;;5.40;3.63;;;21.60;47.80;;;;;;5038697;28;20496;-65
2023/04/21 04:01:05;;;;;;;4.57;3.20;;;21.60;47.80;;;;;;5042316;28;20034;-67
2023/04/21 04:03:31;;;;;;;5.18;3.13;;;21.60;47.80;;;;;;5041812;28;20025;-66
2023/04/21 04:05:57;;;;;;;4.45;3.08;;;21.60;47.80;;;;;;5041436;28;20388;-66
2023/04/21 04:08:22;;;;;;;4.72;3.20;;;21.60;47.80;;;;;;5043042;28;20060;-67
2023/04/21 04:10:48;;;;;;;5.10;3.30;;;21.60;47.80;;;;;;5040211;28;20025;-66
2023/04/21 04:13:13;;;;;;;4.75;3.00;;;21.60;47.80;;;;;;5039473;28;20025;-63
2023/04/21 04:15:39;;;;;;;4.80;2.90;;;21.60;47.90;;;;;;5040076;28;20389;-63
2023/04/21 04:18:05;;;;;;;4.30;3.08;;;21.60;47.90;;;;;;5038121;28;20079;-63
2023/04/21 04:20:30;;;;;;;3.97;2.80;;;21.60;48.00;;;;;;5041056;28;20393;-63
2023/04/21 04:22:56;;;;;;;3.97;2.67;;;21.60;48.00;;;;;;5039038;28;20379;-64
2023/04/21 04:25:22;;;;;;;4.47;3.08;;;21.60;48.00;;;;;;5035794;28;20029;-64
2023/04/21 04:27:49;;;;;;;4.28;3.25;;;21.60;48.10;;;;;;5039361;28;20112;-63
2023/04/21 04:30:14;;;;;;;3.78;2.60;;;21.50;48.00;;;;;;5038775;28;20592;-63
2023/04/21 04:32:40;;;;;;;4.25;2.92;;;21.60;48.10;;;;;;5040538;28;20029;-63
2023/04/21 04:35:06;;;;;;;4.50;3.00;;;21.60;48.10;;;;;;5039573;28;20036;-63
2023/04/21 04:37:34;;;;;;;3.97;2.80;;;21.50;48.50;;;;;;5038163;28;20038;-62
2023/04/21 04:40:00;;;;;;;4.20;2.90;;;21.50;48.00;;;;;;5037478;28;20500;-64
2023/04/21 04:42:25;;;;;;;4.32;2.88;;;21.50;48.10;;;;;;5042480;28;20025;-63
2023/04/21 04:44:54;;;;;;;4.20;2.70;;;21.50;48.10;;;;;;5041653;28;20067;-63
2023/04/21 04:47:20;;;;;;;4.05;2.83;;;21.50;48.10;;;;;;5037498;28;20064;-63
2023/04/21 04:49:46;;;;;;;4.00;2.70;;;21.50;48.10;;;;;;5037664;28;20464;-63
2023/04/21 04:52:12;;;;;;;4.32;2.70;;;21.60;48.10;;;;;;5037628;28;20113;-64
2023/04/21 04:54:37;;;;;;;4.68;3.15;;;21.50;48.10;;;;;;5035481;28;20040;-62
2023/04/21 04:57:03;;;;;;;4.60;2.90;;;21.50;48.10;;;;;;5038231;28;20029;-63
2023/04/21 04:59:29;;;;;;;4.47;2.78;;;21.50;48.10;;;;;;5040193;28;20033;-63
2023/04/21 05:01:56;;;;;;;4.55;2.63;;;21.50;48.20;;;;;;5039166;28;20112;-64
2023/04/21 05:04:22;;;;;;;4.35;2.80;;;21.50;48.20;;;;;;5038656;28;20489;-63
2023/04/21 05:06:47;;;;;;;4.47;2.78;;;21.50;48.30;;;;;;5037350;28;20036;-63
2023/04/21 05:09:13;;;;;;;4.32;2.60;;;21.50;48.50;;;;;;5037584;28;20046;-63
2023/04/21 05:11:39;;;;;;;4.25;2.83;;;21.50;48.50;;;;;;5036356;28;20612;-63
2023/04/21 05:14:04;;;;;;;4.38;2.95;;;21.50;48.50;;;;;;5039717;28;20025;-62
2023/04/21 05:16:30;;;;;;;5.32;3.20;;;21.50;48.50;;;;;;5036855;28;20034;-63
2023/04/21 05:18:59;;;;;;;6.25;3.15;;;21.50;48.50;;;;;;5039392;28;20194;-62
2023/04/21 05:21:26;;;;;;;5.60;3.17;;;21.50;48.50;;;;;;5033615;28;20029;-62
2023/04/21 05:23:52;;;;;;;5.38;3.17;;;21.50;48.50;;;;;;5036383;28;20061;-63
2023/04/21 05:26:18;;;;;;;7.03;3.05;;;21.50;48.50;;;;;;5036314;28;20406;-63
2023/04/21 05:28:44;;;;;;;6.55;3.38;;;21.50;48.50;;;;;;5038189;28;20075;-63
2023/04/21 05:31:09;;;;;;;5.95;3.33;;;21.50;48.50;;;;;;5037882;28;20040;-63
2023/04/21 05:33:35;;;;;;;5.35;3.03;;;21.40;48.50;;;;;;5038637;28;20505;-63
2023/04/21 05:36:00;;;;;;;6.32;3.55;;;21.40;48.50;;;;;;5038946;28;20041;-63
2023/04/21 05:38:26;;;;;;;6.82;3.45;;;21.50;48.50;;;;;;5043779;28;20400;-61
2023/04/21 05:40:54;;;;;;;7.60;3.50;;;21.50;48.50;;;;;;5041741;28;20081;-63
2023/04/21 05:43:20;;;;;;;7.97;3.85;;;21.50;48.60;;;;;;5042686;28;20021;-63
2023/04/21 05:45:45;;;;;;;6.68;3.20;;;21.40;48.50;;;;;;5042058;28;20025;-63
2023/04/21 05:48:11;;;;;;;5.85;3.08;;;21.40;48.50;;;;;;5041761;28;20037;-63
2023/04/21 05:50:36;;;;;;;6.45;3.08;;;21.40;48.50;;;;;;5043279;28;20481;-63
2023/04/21 05:53:02;;;;;;;6.38;3.53;;;21.40;48.50;;;;;;5041979;28;20056;-63
2023/04/21 05:55:28;;;;;;;5.85;3.03;;;21.40;48.50;;;;;;5044034;28;20026;-64
2023/04/21 05:57:53;;;;;;;5.28;3.13;;;21.40;48.50;;;;;;5043022;28;20021;-62
2023/04/21 06:00:19;;;;;;;6.80;3.28;;;21.40;48.50;;;;;;5043817;28;20546;-63
2023/04/21 06:02:44;;;;;;;6.57;3.00;;;21.40;48.50;;;;;;5042501;28;20531;-63
2023/04/21 06:05:10;;;;;;;5.40;3.25;;;21.40;48.50;;;;;;5045516;28;20082;-63
2023/04/21 06:07:36;;;;;;;6.43;3.05;;;21.40;48.50;;;;;;5042478;28;20496;-63
2023/04/21 06:10:02;;;;;;;6.15;3.03;;;21.40;48.50;;;;;;5041505;28;20021;-63
2023/04/21 06:12:28;;;;;;;7.38;3.30;;;21.40;48.50;;;;;;5042123;28;20033;-63
2023/04/21 06:14:56;;;;;;;6.38;3.30;;;21.40;48.50;;;;;;5041451;28;20393;-63
2023/04/21 06:17:25;;;;;;;5.55;2.92;;;21.40;48.50;;;;;;5040671;28;20859;-63
2023/04/21 06:19:52;;;;;;;5.03;2.95;;;21.40;48.50;;;;;;5043449;28;20021;-63
2023/04/21 06:22:24;;;;;;;5.45;3.25;;;21.40;48.50;;;;;;5040280;28;20037;-63
2023/04/21 06:24:50;;;;;;;4.97;2.88;;;21.40;48.60;;;;;;5040624;28;20029;-63
2023/04/21 06:27:16;;;;;;;6.05;2.90;;;21.40;48.50;;;;;;5041597;28;20132;-63
2023/04/21 06:29:42;;;;;;;8.57;3.30;;;21.40;48.50;;;;;;5041433;28;20095;-62
2023/04/21 06:32:09;;;;;;;4.80;2.90;;;21.40;48.50;;;;;;5042819;28;20052;-63
2023/04/21 06:34:34;;;;;;;5.18;3.00;;;21.40;48.50;;;;;;5042714;28;20021;-59
2023/04/21 06:37:00;;;;;;;6.28;3.53;;;21.40;48.60;;;;;;5042420;28;20033;-63
2023/04/21 06:39:26;;;;;;;6.70;3.20;;;21.40;48.50;;;;;;5041624;28;20017;-63
2023/04/21 06:41:52;;;;;;;6.95;3.40;;;21.40;49.00;;;;;;5039650;28;20715;-63
2023/04/21 06:44:18;;;;;;;5.65;3.13;;;21.40;48.50;;;;;;5039878;28;20029;-63
2023/04/21 06:46:43;;;;;;;5.97;3.33;;;21.40;48.50;;;;;;5041215;28;20367;-63
2023/04/21 06:49:09;;;;;;;7.35;3.63;;;21.30;48.50;;;;;;5040438;28;20406;-63
2023/04/21 06:51:36;;;;;;;6.00;3.00;;;21.40;48.50;;;;;;5040297;28;20022;-63
2023/04/21 06:54:02;;;;;;;6.80;3.15;;;21.40;48.50;;;;;;5041373;28;20158;-63
2023/04/21 06:56:28;;;;;;;5.97;3.22;;;21.40;48.50;;;;;;5038961;28;20124;-63
2023/04/21 06:58:54;;;;;;;5.75;3.03;;;21.40;48.50;;;;;;5042584;28;20021;-63
2023/04/21 07:01:19;;;;;;;4.78;3.10;;;21.40;48.50;;;;;;5040258;28;20055;-63
2023/04/21 07:03:45;;;;;;;5.82;3.10;;;21.30;48.40;;;;;;5043039;28;20057;-63
2023/04/21 07:06:11;;;;;;;4.82;2.80;;;21.30;48.40;;;;;;5040706;28;20113;-63
2023/04/21 07:08:37;;;;;;;5.85;3.15;;;21.30;48.40;;;;;;5041320;28;20033;-63
2023/04/21 07:11:02;;;;;;;6.03;3.42;;;21.30;48.40;;;;;;5040791;28;20070;-63
2023/04/21 07:13:28;;;;;;;6.13;3.55;;;21.30;48.40;;;;;;5041373;28;20029;-64
2023/04/21 07:15:54;;;;;;;4.80;2.80;;;21.30;48.40;;;;;;5039703;28;20021;-63
2023/04/21 07:18:20;;;;;;;4.13;2.80;;;21.30;48.40;;;;;;5041823;28;20028;-63
2023/04/21 07:20:45;;;;;;;4.68;3.10;;;21.30;48.40;;;;;;5041848;28;20029;-63
2023/04/21 07:23:11;;;;;;;5.45;3.15;;;21.30;48.40;;;;;;5039434;28;20509;-63
2023/04/21 07:25:37;;;;;;;4.50;2.78;;;21.30;48.40;;;;;;5038699;28;20115;-63
2023/04/21 07:28:03;;;;;;;4.95;2.90;;;21.30;48.40;;;;;;5039382;28;20040;-63
2023/04/21 07:30:29;;;;;;;5.18;3.00;;;21.30;48.40;;;;;;5038551;28;20028;-63
2023/04/21 07:32:55;;;;;;;5.15;3.35;;;21.30;48.40;;;;;;5042393;28;20037;-63
2023/04/21 07:35:21;;;;;;;4.95;3.08;;;21.30;48.40;;;;;;5037867;28;20159;-63
2023/04/21 07:37:47;;;;;;;5.68;2.70;;;21.30;48.40;;;;;;5040702;28;20271;-63
2023/04/21 07:40:13;;;;;;;4.57;2.70;;;21.30;48.40;;;;;;5041083;28;20159;-63
2023/04/21 07:42:39;;;;;;;5.25;3.05;;;21.30;48.40;;;;;;5040085;28;20034;-63
2023/04/21 07:45:05;;;;;;;5.63;2.95;;;21.30;48.50;;;;;;5041185;28;20025;-64
2023/04/21 07:47:32;;;;;;;4.97;2.90;;;21.30;48.40;;;;;;5039445;28;20343;-63
2023/04/21 07:49:57;;;;;;;5.20;2.90;;;21.30;48.40;;;;;;5038175;28;20376;-63
2023/04/21 07:52:23;;;;;;;4.07;2.65;;;21.30;48.40;;;;;;5035182;28;20037;-63
2023/04/21 07:54:49;;;;;;;6.57;2.90;;;21.30;48.40;;;;;;5041400;28;20382;-64
2023/04/21 07:57:15;;;;;;;3.95;2.70;;;21.30;48.40;;;;;;5035839;28;20119;-63
2023/04/21 07:59:41;;;;;;;4.50;2.60;;;21.30;48.50;;;;;;5037158;28;20045;-63
2023/04/21 08:02:07;;;;;;;5.88;2.85;;;21.30;48.40;;;;;;5040131;28;20515;-64
2023/04/21 08:04:33;;;;;;;4.93;2.92;;;21.30;48.50;;;;;;5040018;28;20755;-63
2023/04/21 08:06:59;;;;;;;3.95;2.60;;;21.30;48.40;;;;;;5038876;28;20040;-63
2023/04/21 08:09:25;;;;;;;4.97;3.03;;;21.30;48.40;;;;;;5038272;28;20040;-63
2023/04/21 08:11:51;;;;;;;5.32;3.00;;;21.30;48.40;;;;;;5037774;28;20033;-63
2023/04/21 08:14:17;;;;;;;4.55;2.45;;;21.30;48.40;;;;;;5046426;28;20026;-63
2023/04/21 08:16:42;;;;;;;5.03;2.75;;;21.30;48.40;;;;;;5040338;28;20135;-64
2023/04/21 08:19:08;;;;;;;4.57;3.03;;;21.30;48.40;;;;;;5039842;28;20512;-63
2023/04/21 08:21:34;;;;;;;4.53;2.42;;;21.30;48.40;;;;;;5039968;28;20033;-63
2023/04/21 08:24:00;;;;;;;4.47;2.75;;;21.30;48.50;;;;;;5037368;28;20029;-63
2023/04/21 08:26:28;;;;;;;4.97;2.85;;;21.20;48.40;;;;;;5040645;28;20496;-64
2023/04/21 08:28:55;;;;;;;4.13;2.30;;;21.30;48.40;;;;;;5040810;28;20412;-64
2023/04/21 08:31:21;;;;;;;4.53;2.70;;;21.30;48.40;;;;;;5039058;28;20052;-64
2023/04/21 08:33:46;;;;;;;5.28;3.40;;;21.20;48.40;;;;;;5040290;28;20045;-63
2023/04/21 08:36:12;;;;;;;4.63;2.67;;;21.20;48.30;;;;;;5042390;28;20400;-63
2023/04/21 08:38:38;;;;;;;4.78;2.90;;;21.30;48.40;;;;;;5040690;28;20033;-63
2023/04/21 08:41:05;;;;;;;5.03;2.80;;;21.20;48.30;;;;;;5037334;28;20611;-64
2023/04/21 08:43:30;;;;;;;4.28;2.50;;;21.30;48.40;;;;;;5039120;28;20461;-64
2023/04/21 08:45:57;;;;;;;4.05;2.60;;;21.20;48.30;;;;;;5037377;28;20071;-64
2023/04/21 08:48:25;;;;;;;5.20;2.83;;;21.20;48.30;;;;;;5041130;28;20512;-65
2023/04/21 08:50:51;;;;;;;3.58;2.50;;;21.30;48.40;;;;;;5039767;28;20048;-64
2023/04/21 08:53:17;;;;;;;4.88;2.70;;;21.20;48.30;;;;;;5035881;28;20041;-65
2023/04/21 08:55:43;;;;;;;4.85;3.10;;;21.20;48.30;;;;;;5043776;28;20106;-65
2023/04/21 08:58:09;;;;;;;4.78;2.88;;;21.20;48.30;;;;;;5037750;28;20489;-65
2023/04/21 09:00:35;;;;;;;4.43;2.78;;;21.20;48.30;;;;;;5040480;28;20032;-65
2023/04/21 09:03:02;;;;;;;3.65;2.55;;;21.20;48.30;;;;;;5038553;28;20021;-64
2023/04/21 09:05:30;;;;;;;4.45;2.70;;;21.20;48.30;;;;;;5037600;28;20377;-65
2023/04/21 09:08:13;;;;;;;4.95;2.70;;;21.20;48.30;;;;;;5037867;28;20540;-65
2023/04/21 09:10:46;;;;;;;3.88;2.63;;;21.20;48.40;;;;;;5041317;28;20523;-65
2023/04/21 09:13:12;;;;;;;4.38;2.60;;;21.20;48.30;;;;;;5036427;28;20462;-65
2023/04/21 09:15:42;;;;;;;5.15;3.00;;;21.20;48.40;;;;;;5040176;28;20101;-65
2023/04/21 09:18:15;;;;;;;4.47;2.75;;;21.20;48.30;;;;;;5038768;28;20040;-65
2023/04/21 09:20:42;;;;;;;4.00;2.80;;;21.20;48.40;;;;;;5040928;28;20334;-65
2023/04/21 09:23:08;;;;;;;4.95;2.60;;;21.20;48.40;;;;;;5037049;28;20474;-65
2023/04/21 09:25:37;;;;;;;4.07;2.70;;;21.20;48.40;;;;;;5037989;28;20025;-65
2023/04/21 09:28:06;;;;;;;5.07;2.63;;;21.20;48.30;;;;;;5036542;28;20489;-65
2023/04/21 09:30:34;;;;;;;4.00;2.67;;;21.20;48.40;;;;;;5039985;28;20033;-65
2023/04/21 09:33:00;;;;;;;4.40;2.58;;;21.20;48.40;;;;;;5039714;28;20053;-65
2023/04/21 09:35:32;;;;;;;5.20;2.95;;;21.20;48.50;;;;;;5038893;28;20029;-65
2023/04/21 09:38:00;;;;;;;4.38;2.60;;;21.20;48.50;;;;;;5044743;28;20025;-65
2023/04/21 09:40:27;;;;;;;4.18;2.88;;;21.20;48.50;;;;;;5038182;28;20029;-65
2023/04/21 09:42:52;;;;;;;5.28;3.05;;;21.20;48.50;;;;;;5039539;28;20441;-65
2023/04/21 09:45:18;;;;;;;5.03;3.00;;;21.20;48.50;;;;;;5039656;28;20061;-65
2023/04/21 09:47:52;;;;;;;3.90;2.53;;;21.20;48.50;;;;;;5039509;28;20080;-65
2023/04/21 09:50:21;;;;;;;4.53;2.83;;;21.20;48.50;;;;;;5040961;28;20487;-65
2023/04/21 09:52:51;;;;;;;4.15;2.67;;;21.20;48.60;;;;;;5037180;28;20112;-65
2023/04/21 09:55:21;;;;;;;4.18;2.70;;;21.20;48.60;;;;;;5038551;28;20045;-65
2023/04/21 09:57:49;;;;;;;;;;;21.20;49.10;;;;;;5036982;28;20543;-65
2023/04/21 10:00:17;;;;;;;4.60;2.90;;;21.20;48.60;;;;;;5040496;28;19905;-65
2023/04/21 10:02:48;;;;;;;4.57;2.70;;;21.20;48.60;;;;;;5038392;28;20059;-65
2023/04/21 10:05:14;;;;;;;4.85;2.55;;;21.20;48.60;;;;;;5037751;28;20384;-65
2023/04/21 10:07:40;;;;;;;4.95;2.72;;;21.20;48.60;;;;;;5039505;28;20477;-65
2023/04/21 10:10:12;;;;;;;4.03;2.40;;;21.20;48.70;;;;;;5037175;28;20032;-65
2023/04/21 10:12:37;;;;;;;3.95;2.30;;;21.20;48.70;;;;;;5036403;28;20040;-65
2023/04/21 10:15:05;;;;;;;3.20;2.38;;;21.20;48.70;;;;;;5040233;28;20465;-65
2023/04/21 10:17:34;;;;;;;4.05;2.63;;;21.20;48.70;;;;;;5038687;28;20025;-65
2023/04/21 10:20:00;;;;;;;4.95;2.80;;;21.20;48.70;;;;;;5040255;28;20017;-65
2023/04/21 10:22:30;;;;;;;3.70;2.22;;;21.20;48.80;;;;;;5038464;28;20025;-65
2023/04/21 10:24:57;;;;;;;3.85;2.45;;;21.20;48.70;;;;;;5041844;28;20033;-65
2023/04/21 10:27:38;;;;;;;4.13;2.63;;;21.20;48.60;;;;;;5041075;28;20025;-65
2023/04/21 10:30:25;;;;;;;3.50;2.38;;;21.20;48.70;;;;;;5044149;28;20033;-65
2023/04/21 10:33:04;;;;;;;4.05;2.13;;;21.20;48.60;;;;;;5041769;28;20496;-65
2023/04/21 10:36:15;;;;;;;3.30;2.30;;;21.20;48.70;;;;;;5039805;28;20928;-65
2023/04/21 10:38:42;;;;;;;3.88;2.30;;;21.20;48.70;;;;;;5037673;28;20111;-68
2023/04/21 10:41:32;;;;;;;3.50;2.25;;;21.20;48.60;;;;;;5040174;28;20108;-65
2023/04/21 10:44:06;;;;;;;;;;;21.20;48.60;;;;;;5039454;28;20551;-65
2023/04/21 10:46:36;;;;;;;4.13;2.40;;;21.20;48.60;;;;;;5041077;28;19933;-65
2023/04/21 10:49:09;;;;;;;4.90;2.58;;;21.20;48.60;;;;;;5042721;28;20393;-66
2023/04/21 10:52:03;;;;;;;4.22;2.70;;;21.20;48.60;;;;;;5055502;28;20049;-65
2023/04/21 10:54:30;;;;;;;4.18;2.50;;;21.20;48.60;;;;;;5040371;28;20089;-65
2023/04/21 10:56:57;;;;;;;4.22;2.58;;;21.20;48.50;;;;;;5038397;28;20025;-65
2023/04/21 10:59:25;;;;;;;3.63;2.20;;;21.20;48.50;;;;;;5041763;28;20096;-64
2023/04/21 11:01:51;;;;;;;4.18;2.50;;;21.20;48.50;;;;;;5039656;28;20039;-65
2023/04/21 11:04:18;;;;;;;3.75;2.30;;;21.20;48.50;;;;;;5041149;28;20436;-65
2023/04/21 11:07:09;;;;;;;3.90;2.30;;;21.20;48.50;;;;;;5040665;28;20163;-65
2023/04/21 11:09:36;;;;;;;4.22;2.38;;;21.20;48.50;;;;;;5042140;28;20030;-65
2023/04/21 11:12:06;;;;;;;3.70;2.58;;;21.30;48.60;;;;;;5042139;28;20496;-65
2023/04/21 11:14:34;;;;;;;3.70;2.47;;;21.20;48.50;;;;;;5039194;28;20063;-65
2023/04/21 11:17:00;;;;;;;3.70;2.35;;;21.20;48.50;;;;;;5043478;28;20028;-65
2023/04/21 11:19:27;;;;;;;3.70;2.50;;;21.30;48.60;;;;;;5041489;28;20021;-65
2023/04/21 11:21:53;;;;;;;3.38;2.10;;;21.30;48.60;;;;;;5040530;28;20056;-65
2023/04/21 11:24:22;;;;;;;3.55;2.50;;;21.20;48.50;;;;;;5041247;28;20532;-65
2023/04/21 11:26:47;;;;;;;3.80;2.38;;;21.30;48.60;;;;;;5041252;28;20422;-65
2023/04/21 11:29:14;;;;;;;3.42;2.30;;;21.20;48.50;;;;;;5042376;28;20055;-67
2023/04/21 11:31:41;;;;;;;3.80;2.40;;;21.20;48.50;;;;;;5042353;28;20036;-67
2023/04/21 11:34:07;;;;;;;3.80;2.63;;;21.20;48.50;;;;;;5040907;28;20080;-67
2023/04/21 11:36:37;;;;;;;5.07;2.97;;;21.30;48.50;;;;;;5038859;28;20132;-68
2023/04/21 11:39:12;;;;;;;4.40;2.97;;;21.20;48.40;;;;;;5038848;28;20047;-68
2023/04/21 11:41:40;;;;;;;5.78;3.45;;;21.30;48.50;;;;;;5041183;28;20461;-68
2023/04/21 11:44:06;;;;;;;4.85;3.60;;;21.30;48.50;;;;;;5038641;28;20508;-68
2023/04/21 11:46:32;;;;;;;4.28;3.63;;;21.20;48.50;;;;;;5043438;28;20030;-68
2023/04/21 11:49:00;;;;;;;5.72;4.25;;;21.30;48.50;;;;;;5041949;28;20022;-67
2023/04/21 11:51:31;;;;;;;6.22;4.70;;;21.30;48.50;;;;;;5037790;28;20021;-67
2023/04/21 11:53:58;;;;;;;5.45;4.57;;;21.30;48.50;;;;;;5039078;28;20060;-68
2023/04/21 11:56:23;;;;;;;6.07;4.80;;;21.20;48.40;;;;;;5039470;28;20450;-67
2023/04/21 11:58:51;;;;;;;5.97;5.10;;;21.30;48.50;;;;;;5037557;28;20112;-67
2023/04/21 12:01:17;;;;;;;6.13;5.15;;;21.30;48.40;;;;;;5040491;28;20029;-68
2023/04/21 12:03:51;;;;;;;6.65;5.43;;;21.30;48.40;;;;;;5038726;28;20426;-67
2023/04/21 12:06:27;;;;;;;5.93;5.05;;;21.30;48.40;;;;;;5040557;28;20094;-67
2023/04/21 12:09:01;;;;;;;7.18;5.68;;;21.30;48.40;;;;;;5042306;28;20025;-67
2023/04/21 12:11:28;;;;;;;6.40;5.53;;;21.30;48.40;;;;;;5046465;28;20037;-67
2023/04/21 12:13:57;;;;;;;6.57;5.22;;;21.30;48.40;;;;;;5037644;28;20037;-67
2023/04/21 12:16:27;;;;;;;6.30;5.50;;;21.30;48.40;;;;;;5041450;28;20977;-67
2023/04/21 12:18:56;;;;;;;6.85;5.50;;;21.30;48.40;;;;;;5043231;28;20024;-68
2023/04/21 12:21:29;;;;;;;6.78;5.60;;;21.30;48.40;;;;;;5038743;28;20473;-67
2023/04/21 12:23:55;;;;;;;6.80;5.65;;;21.30;48.40;;;;;;5038823;28;20022;-68
2023/04/21 12:26:22;;;;;;;6.45;5.68;;;21.30;48.40;;;;;;5045196;28;20052;-67
2023/04/21 12:28:51;;;;;;;7.18;6.00;;;21.30;48.60;;;;;;5051037;28;20554;-68
2023/04/21 12:31:17;;;;;;;6.68;5.60;;;21.30;49.00;;;;;;5051893;28;20170;-68
2023/04/21 12:33:43;;;;;;;6.20;5.03;;;21.30;49.10;;;;;;5041438;28;20116;-68
2023/04/21 12:36:10;;;;;;;6.75;5.57;;;21.40;49.00;;;;;;5045205;28;20083;-68
2023/04/21 12:38:36;;;;;;;5.47;4.80;;;21.40;48.80;;;;;;5040707;28;20045;-68
2023/04/21 12:41:01;;;;;;;5.25;4.75;;;21.40;48.80;;;;;;5043025;28;20060;-68
2023/04/21 12:43:27;;;;;;;5.32;4.45;;;21.40;48.80;;;;;;5039210;28;20071;-68
2023/04/21 12:45:53;;;;;;;5.25;4.63;;;21.40;48.80;;;;;;5038184;28;20037;-69
2023/04/21 12:48:21;;;;;;;4.80;4.07;;;21.40;48.80;;;;;;5041798;28;20481;-69